createdAt,value
2017-06-22T00:00:02.889Z,16.20
2017-06-22T00:02:31.217Z,16.20
2017-06-22T00:04:59.525Z,16.10
2017-06-22T00:07:27.861Z,16.00
2017-06-22T00:09:56.942Z,16.00
2017-06-22T00:12:25.296Z,16.00
2017-06-22T00:14:54.032Z,16.00
2017-06-22T00:17:23.110Z,16.00
2017-06-22T00:19:51.439Z,16.00
2017-06-22T00:22:20.506Z,15.90
2017-06-22T00:24:48.844Z,15.90
2017-06-22T00:27:17.152Z,15.80
2017-06-22T00:29:45.483Z,15.80
2017-06-22T00:32:14.591Z,15.70
2017-06-22T00:34:42.969Z,15.60
2017-06-22T00:37:11.276Z,15.60
2017-06-22T00:39:39.589Z,15.50
2017-06-22T00:42:07.914Z,15.70
2017-06-22T00:44:36.610Z,15.70
2017-06-22T00:47:04.938Z,15.50
2017-06-22T00:49:33.241Z,15.60
2017-06-22T00:52:02.335Z,15.50
2017-06-22T00:54:30.754Z,15.60
2017-06-22T00:56:59.100Z,15.50
2017-06-22T00:59:27.805Z,15.50
2017-06-22T01:01:56.900Z,15.50
2017-06-22T01:04:25.229Z,15.40
2017-06-22T01:06:53.934Z,15.40
2017-06-22T01:09:22.277Z,15.40
2017-06-22T01:11:51.357Z,15.40
2017-06-22T01:14:19.688Z,15.30
2017-06-22T01:16:48.770Z,15.30
2017-06-22T01:19:17.087Z,15.40
2017-06-22T01:21:45.784Z,15.20
2017-06-22T01:24:14.116Z,15.20
2017-06-22T01:26:43.228Z,15.20
2017-06-22T01:29:11.688Z,15.20
2017-06-22T01:31:39.988Z,15.20
2017-06-22T01:34:08.711Z,15.20
2017-06-22T01:36:37.428Z,15.20
2017-06-22T01:39:05.765Z,15.10
2017-06-22T01:41:34.068Z,15.10
2017-06-22T01:44:02.417Z,15.00
2017-06-22T01:46:30.729Z,14.90
2017-06-22T01:48:59.067Z,14.80
2017-06-22T01:51:27.768Z,14.80
2017-06-22T01:53:56.059Z,14.80
2017-06-22T01:56:24.789Z,14.80
2017-06-22T01:58:53.094Z,14.80
2017-06-22T02:01:21.421Z,14.90
2017-06-22T02:03:49.722Z,14.80
2017-06-22T02:06:18.040Z,14.80
2017-06-22T02:08:46.364Z,14.80
2017-06-22T02:11:15.473Z,14.80
2017-06-22T02:13:43.764Z,14.70
2017-06-22T02:16:13.346Z,14.60
2017-06-22T02:18:41.649Z,14.60
2017-06-22T02:21:09.971Z,14.60
2017-06-22T02:23:38.301Z,14.70
2017-06-22T02:26:06.634Z,14.60
2017-06-22T02:28:35.303Z,14.60
2017-06-22T02:31:03.625Z,14.80
2017-06-22T02:33:31.944Z,14.70
2017-06-22T02:36:01.041Z,14.70
2017-06-22T02:38:29.341Z,14.70
2017-06-22T02:40:57.687Z,14.80
2017-06-22T02:43:26.012Z,14.70
2017-06-22T02:45:54.343Z,14.80
2017-06-22T02:48:22.788Z,14.70
2017-06-22T02:50:51.095Z,14.70
2017-06-22T02:53:19.431Z,14.70
2017-06-22T02:55:47.736Z,14.70
2017-06-22T02:58:16.062Z,14.70
2017-06-22T03:00:44.373Z,14.70
2017-06-22T03:03:12.725Z,14.70
2017-06-22T03:05:41.810Z,14.80
2017-06-22T03:08:10.914Z,14.80
2017-06-22T03:10:39.988Z,14.90
2017-06-22T03:13:08.330Z,14.90
2017-06-22T03:15:36.640Z,15.00
2017-06-22T03:18:04.965Z,15.10
2017-06-22T03:20:33.384Z,15.10
2017-06-22T03:23:01.681Z,15.20
2017-06-22T03:25:29.988Z,15.20
2017-06-22T03:27:58.312Z,15.30
2017-06-22T03:30:27.897Z,15.30
2017-06-22T03:32:59.374Z,15.30
2017-06-22T03:35:27.680Z,15.40
2017-06-22T03:37:56.897Z,15.50
2017-06-22T03:40:25.247Z,15.40
2017-06-22T03:42:53.552Z,15.50
2017-06-22T03:45:22.711Z,15.50
2017-06-22T03:47:51.040Z,15.60
2017-06-22T03:50:19.415Z,15.50
2017-06-22T03:52:47.728Z,15.50
2017-06-22T03:55:16.084Z,15.50
2017-06-22T03:57:44.432Z,15.50
2017-06-22T04:00:12.821Z,15.60
2017-06-22T04:02:41.236Z,15.80
2017-06-22T04:05:09.559Z,15.80
2017-06-22T04:07:37.891Z,15.80
2017-06-22T04:10:06.201Z,16.00
2017-06-22T04:12:34.537Z,16.00
2017-06-22T04:15:02.866Z,16.00
2017-06-22T04:17:31.194Z,15.90
2017-06-22T04:19:59.491Z,16.00
2017-06-22T04:22:28.200Z,16.00
2017-06-22T04:24:56.500Z,16.00
2017-06-22T04:27:24.835Z,16.00
2017-06-22T04:29:53.913Z,16.00
2017-06-22T04:32:22.220Z,16.00
2017-06-22T04:34:50.553Z,16.00
2017-06-22T04:37:18.893Z,16.10
2017-06-22T04:39:47.233Z,16.20
2017-06-22T04:42:15.561Z,16.30
2017-06-22T04:44:43.895Z,16.30
2017-06-22T04:47:12.971Z,16.30
2017-06-22T04:49:41.310Z,16.30
2017-06-22T04:52:09.610Z,16.30
2017-06-22T04:54:37.939Z,16.30
2017-06-22T04:57:06.241Z,16.30
2017-06-22T04:59:34.543Z,16.30
2017-06-22T05:02:02.887Z,16.50
2017-06-22T05:04:31.238Z,16.50
2017-06-22T05:07:00.309Z,16.60
2017-06-22T05:09:29.014Z,16.70
2017-06-22T05:11:58.276Z,16.80
2017-06-22T05:14:26.650Z,16.90
2017-06-22T05:16:54.975Z,17.00
2017-06-22T05:19:24.060Z,17.10
2017-06-22T05:21:52.387Z,17.30
2017-06-22T05:24:20.708Z,17.30
2017-06-22T05:26:49.026Z,17.40
2017-06-22T05:29:17.333Z,17.40
2017-06-22T05:31:45.770Z,17.60
2017-06-22T05:34:14.190Z,17.80
2017-06-22T05:36:42.512Z,17.90
2017-06-22T05:39:10.810Z,18.00
2017-06-22T05:41:39.192Z,18.20
2017-06-22T05:44:07.596Z,18.20
2017-06-22T05:46:36.872Z,18.40
2017-06-22T05:49:05.173Z,18.50
2017-06-22T05:51:33.490Z,18.70
2017-06-22T05:54:01.805Z,19.00
2017-06-22T05:56:30.139Z,18.90
2017-06-22T05:58:58.464Z,19.10
2017-06-22T06:01:26.869Z,19.30
2017-06-22T06:03:55.247Z,19.30
2017-06-22T06:06:23.623Z,19.50
2017-06-22T06:08:52.723Z,19.80
2017-06-22T06:11:21.152Z,20.10
2017-06-22T06:13:49.546Z,20.10
2017-06-22T06:16:18.791Z,20.50
2017-06-22T06:18:47.970Z,20.70
2017-06-22T06:21:16.396Z,20.70
2017-06-22T06:23:44.754Z,20.90
2017-06-22T06:26:13.852Z,21.00
2017-06-22T06:28:42.310Z,20.90
2017-06-22T06:31:10.638Z,21.00
2017-06-22T06:33:39.108Z,21.10
2017-06-22T06:36:08.747Z,21.20
2017-06-22T06:38:37.087Z,21.40
2017-06-22T06:41:05.468Z,22.00
2017-06-22T06:43:33.825Z,21.90
2017-06-22T06:46:02.203Z,22.00
2017-06-22T06:48:30.628Z,22.00
2017-06-22T06:50:58.928Z,22.40
2017-06-22T06:53:27.293Z,22.40
2017-06-22T06:55:55.621Z,22.50
2017-06-22T06:58:24.023Z,22.50
2017-06-22T07:00:52.310Z,22.60
2017-06-22T07:03:20.677Z,22.80
2017-06-22T07:05:49.003Z,22.90
2017-06-22T07:08:17.559Z,23.00
2017-06-22T07:10:46.680Z,23.30
2017-06-22T07:13:16.962Z,23.50
2017-06-22T07:15:45.311Z,23.50
2017-06-22T07:18:13.656Z,23.60
2017-06-22T07:20:42.885Z,23.90
2017-06-22T07:23:11.307Z,23.90
2017-06-22T07:25:39.702Z,24.00
2017-06-22T07:28:08.040Z,24.10
2017-06-22T07:30:36.382Z,24.30
2017-06-22T07:33:05.450Z,24.40
2017-06-22T07:35:34.603Z,24.40
2017-06-22T07:38:02.929Z,24.50
2017-06-22T07:40:31.273Z,24.80
2017-06-22T07:42:59.627Z,25.10
2017-06-22T07:45:27.948Z,25.10
2017-06-22T07:47:56.314Z,25.20
2017-06-22T07:50:24.681Z,25.20
2017-06-22T07:52:52.998Z,25.20
2017-06-22T07:55:22.111Z,25.50
2017-06-22T07:57:50.422Z,25.40
2017-06-22T08:00:18.781Z,25.40
2017-06-22T08:02:47.107Z,25.40
2017-06-22T08:05:15.510Z,25.40
2017-06-22T08:07:43.809Z,25.20
2017-06-22T08:10:12.136Z,25.40
2017-06-22T08:12:40.526Z,25.40
2017-06-22T08:15:08.833Z,25.70
2017-06-22T08:17:37.170Z,25.40
2017-06-22T08:20:05.469Z,25.40
2017-06-22T08:22:33.817Z,25.20
2017-06-22T08:25:02.230Z,25.50
2017-06-22T08:27:30.598Z,25.50
2017-06-22T08:29:59.240Z,25.90
2017-06-22T08:32:27.576Z,25.90
2017-06-22T08:34:55.990Z,25.90
2017-06-22T08:37:24.342Z,26.10
2017-06-22T08:39:52.709Z,26.30
2017-06-22T08:42:21.029Z,26.40
2017-06-22T08:44:49.355Z,26.70
2017-06-22T08:47:17.701Z,26.80
2017-06-22T08:49:46.054Z,26.80
2017-06-22T08:52:14.436Z,26.80
2017-06-22T08:54:42.744Z,27.10
2017-06-22T08:57:11.069Z,27.10
2017-06-22T08:59:39.488Z,27.10
2017-06-22T09:02:07.808Z,27.20
2017-06-22T09:04:36.141Z,27.30
2017-06-22T09:07:04.469Z,27.60
2017-06-22T09:09:32.779Z,27.80
2017-06-22T09:12:01.133Z,28.00
2017-06-22T09:14:29.475Z,28.00
2017-06-22T09:16:57.776Z,27.90
2017-06-22T09:19:26.114Z,28.10
2017-06-22T09:21:54.409Z,28.50
2017-06-22T09:24:22.733Z,28.50
2017-06-22T09:26:52.055Z,28.50
2017-06-22T09:29:20.381Z,28.60
2017-06-22T09:31:48.676Z,28.90
2017-06-22T09:34:17.012Z,29.10
2017-06-22T09:36:46.170Z,29.80
2017-06-22T09:39:14.525Z,29.70
2017-06-22T09:41:42.936Z,29.80
2017-06-22T09:44:11.286Z,30.10
2017-06-22T09:46:39.621Z,29.60
2017-06-22T09:49:08.011Z,29.70
2017-06-22T09:51:36.313Z,30.00
2017-06-22T09:54:04.675Z,30.40
2017-06-22T09:56:33.020Z,30.40
2017-06-22T09:59:01.341Z,30.40
2017-06-22T10:01:29.661Z,30.40
2017-06-22T10:03:57.994Z,30.80
2017-06-22T10:06:27.221Z,30.70
2017-06-22T10:08:55.561Z,30.50
2017-06-22T10:11:23.870Z,30.50
2017-06-22T10:13:52.181Z,30.70
2017-06-22T10:16:20.515Z,31.00
2017-06-22T10:18:48.889Z,27.70
2017-06-22T10:21:17.215Z,31.40
2017-06-22T10:23:45.558Z,31.20
2017-06-22T10:26:14.480Z,30.80
2017-06-22T10:28:42.854Z,30.40
2017-06-22T10:31:11.161Z,29.20
2017-06-22T10:33:39.498Z,28.70
2017-06-22T10:36:08.471Z,28.30
2017-06-22T10:38:36.799Z,28.50
2017-06-22T10:41:05.939Z,29.50
2017-06-22T10:43:34.317Z,29.50
2017-06-22T10:46:02.686Z,30.00
2017-06-22T10:48:30.976Z,30.60
2017-06-22T10:50:59.538Z,30.50
2017-06-22T10:53:27.897Z,30.40
2017-06-22T10:55:56.242Z,30.50
2017-06-22T10:58:24.607Z,30.50
2017-06-22T11:00:52.980Z,30.20
2017-06-22T11:03:22.123Z,30.40
2017-06-22T11:05:50.490Z,30.80
2017-06-22T11:08:19.621Z,31.10
2017-06-22T11:10:48.330Z,31.10
2017-06-22T11:13:16.628Z,31.40
2017-06-22T11:15:44.941Z,31.60
2017-06-22T11:18:13.376Z,31.80
2017-06-22T11:20:41.694Z,31.70
2017-06-22T11:23:09.986Z,32.00
2017-06-22T11:25:38.366Z,32.10
2017-06-22T11:28:06.707Z,32.10
2017-06-22T11:30:35.792Z,32.20
2017-06-22T11:33:04.905Z,32.50
2017-06-22T11:35:33.253Z,32.40
2017-06-22T11:38:01.994Z,32.60
2017-06-22T11:40:30.323Z,32.60
2017-06-22T11:42:58.660Z,33.10
2017-06-22T11:45:26.971Z,33.40
2017-06-22T11:47:55.394Z,33.50
2017-06-22T11:50:23.706Z,33.80
2017-06-22T11:52:52.030Z,33.80
2017-06-22T11:55:21.137Z,34.20
2017-06-22T11:57:49.487Z,34.20
2017-06-22T12:00:18.633Z,34.90
2017-06-22T12:02:47.038Z,34.80
2017-06-22T12:05:15.337Z,34.10
2017-06-22T12:07:44.456Z,34.90
2017-06-22T12:10:12.829Z,34.80
2017-06-22T12:12:41.289Z,35.20
2017-06-22T12:15:09.651Z,35.30
2017-06-22T12:17:38.000Z,34.80
2017-06-22T12:20:06.338Z,34.10
2017-06-22T12:22:35.285Z,34.40
2017-06-22T12:25:03.604Z,35.00
2017-06-22T12:27:31.954Z,34.70
2017-06-22T12:30:00.253Z,34.80
2017-06-22T12:32:30.154Z,34.80
2017-06-22T12:34:59.228Z,35.00
2017-06-22T12:37:27.576Z,35.00
2017-06-22T12:39:55.881Z,35.60
2017-06-22T12:42:24.192Z,35.80
2017-06-22T12:44:52.701Z,35.00
2017-06-22T12:47:21.283Z,34.70
2017-06-22T12:49:49.601Z,34.80
2017-06-22T12:52:17.901Z,35.00
2017-06-22T12:54:46.975Z,35.30
2017-06-22T12:57:16.305Z,35.30
2017-06-22T12:59:45.388Z,35.50
2017-06-22T13:02:13.791Z,35.50
2017-06-22T13:04:42.149Z,35.60
2017-06-22T13:07:10.511Z,35.50
2017-06-22T13:09:39.553Z,35.10
2017-06-22T13:12:07.929Z,35.00
2017-06-22T13:14:36.257Z,35.70
2017-06-22T13:17:04.554Z,36.20
2017-06-22T13:19:33.677Z,35.50
2017-06-22T13:22:02.011Z,35.40
2017-06-22T13:24:30.313Z,36.00
2017-06-22T13:26:58.732Z,36.40
2017-06-22T13:29:27.032Z,36.40
2017-06-22T13:31:55.846Z,36.50
2017-06-22T13:34:24.972Z,36.80
2017-06-22T13:36:53.301Z,37.00
2017-06-22T13:39:21.664Z,37.00
2017-06-22T13:41:49.961Z,37.10
2017-06-22T13:44:18.317Z,36.40
2017-06-22T13:46:46.636Z,36.50
2017-06-22T13:49:14.958Z,36.00
2017-06-22T13:51:43.342Z,36.50
2017-06-22T13:54:11.680Z,36.10
2017-06-22T13:56:40.021Z,36.20
2017-06-22T13:59:08.384Z,35.50
2017-06-22T14:01:36.701Z,34.70
2017-06-22T14:04:05.035Z,34.50
2017-06-22T14:06:33.335Z,35.00
2017-06-22T14:09:02.429Z,35.40
2017-06-22T14:11:30.719Z,35.40
2017-06-22T14:13:59.062Z,35.20
2017-06-22T14:16:27.379Z,35.20
2017-06-22T14:18:55.704Z,34.90
2017-06-22T14:21:24.053Z,34.90
2017-06-22T14:23:52.415Z,34.80
2017-06-22T14:26:20.745Z,34.70
2017-06-22T14:28:49.065Z,34.70
2017-06-22T14:31:17.397Z,34.40
2017-06-22T14:33:45.744Z,34.60
2017-06-22T14:36:14.085Z,34.60
2017-06-22T14:38:42.828Z,34.60
2017-06-22T14:41:11.158Z,34.50
2017-06-22T14:43:39.478Z,33.80
2017-06-22T14:46:07.787Z,33.20
2017-06-22T14:48:36.882Z,33.20
2017-06-22T14:51:06.691Z,33.20
2017-06-22T14:53:35.014Z,32.60
2017-06-22T14:56:03.320Z,32.10
2017-06-22T14:58:31.641Z,32.10
2017-06-22T15:01:01.045Z,32.00
2017-06-22T15:03:30.191Z,31.60
2017-06-22T15:05:58.594Z,31.50
2017-06-22T15:08:26.960Z,31.50
2017-06-22T15:10:55.369Z,31.10
2017-06-22T15:13:23.739Z,30.90
2017-06-22T15:15:52.465Z,30.70
2017-06-22T15:18:20.813Z,30.70
2017-06-22T15:20:51.626Z,30.50
2017-06-22T15:23:20.356Z,30.30
2017-06-22T15:25:48.737Z,30.20
2017-06-22T15:28:17.182Z,30.20
2017-06-22T15:30:46.289Z,30.20
2017-06-22T15:33:14.619Z,30.10
2017-06-22T15:35:42.951Z,30.00
2017-06-22T15:38:11.280Z,30.20
2017-06-22T15:40:40.625Z,30.40
2017-06-22T15:43:09.698Z,30.60
2017-06-22T15:45:38.058Z,30.60
2017-06-22T15:48:06.945Z,30.60
2017-06-22T15:50:35.895Z,30.30
2017-06-22T15:53:04.252Z,30.30
2017-06-22T15:55:32.543Z,30.20
2017-06-22T15:58:00.857Z,30.10
2017-06-22T16:00:29.222Z,29.90
2017-06-22T16:02:57.618Z,29.80
2017-06-22T16:05:26.037Z,29.50
2017-06-22T16:07:55.305Z,29.20
2017-06-22T16:10:25.486Z,29.20
2017-06-22T16:12:53.797Z,28.90
2017-06-22T16:15:22.179Z,28.90
2017-06-22T16:17:50.514Z,28.20
2017-06-22T16:20:18.867Z,28.10
2017-06-22T16:22:47.973Z,27.80
2017-06-22T16:25:16.296Z,27.60
2017-06-22T16:27:45.176Z,27.60
2017-06-22T16:30:15.056Z,27.50
2017-06-22T16:32:43.407Z,27.40
2017-06-22T16:35:11.756Z,26.90
2017-06-22T16:37:40.289Z,26.90
2017-06-22T16:40:08.625Z,26.30
2017-06-22T16:42:36.980Z,25.60
2017-06-22T16:45:06.092Z,25.30
2017-06-22T16:47:34.415Z,25.10
2017-06-22T16:50:02.730Z,25.10
2017-06-22T16:52:31.578Z,24.80
2017-06-22T16:55:03.348Z,24.50
2017-06-22T16:57:31.658Z,24.40
2017-06-22T17:00:00.132Z,24.00
2017-06-22T17:02:28.457Z,23.70
2017-06-22T17:04:57.578Z,23.30
2017-06-22T17:07:25.901Z,23.20
2017-06-22T17:09:54.332Z,23.20
2017-06-22T17:12:22.662Z,23.20
2017-06-22T17:14:50.995Z,23.20
2017-06-22T17:17:19.306Z,23.10
2017-06-22T17:19:48.392Z,23.00
2017-06-22T17:22:16.716Z,22.80
2017-06-22T17:24:45.898Z,22.80
2017-06-22T17:27:14.205Z,22.60
2017-06-22T17:29:42.537Z,22.50
2017-06-22T17:32:11.412Z,22.30
2017-06-22T17:34:39.743Z,22.30
2017-06-22T17:37:08.058Z,22.30
2017-06-22T17:39:36.436Z,22.10
2017-06-22T17:42:04.801Z,22.00
2017-06-22T17:44:33.541Z,22.00
2017-06-22T17:47:02.670Z,22.10
2017-06-22T17:49:31.001Z,21.70
2017-06-22T17:51:59.330Z,21.80
2017-06-22T17:54:27.739Z,21.70
2017-06-22T17:56:56.229Z,21.50
2017-06-22T17:59:24.589Z,21.60
2017-06-22T18:01:53.711Z,21.80
2017-06-22T18:04:22.027Z,21.90
2017-06-22T18:06:50.368Z,21.90
2017-06-22T18:09:19.129Z,21.80
2017-06-22T18:11:47.495Z,21.90
2017-06-22T18:14:16.203Z,22.10
2017-06-22T18:16:44.539Z,22.00
2017-06-22T18:19:12.842Z,22.20
2017-06-22T18:21:41.155Z,22.10
2017-06-22T18:24:09.930Z,21.90
2017-06-22T18:26:38.272Z,21.90
2017-06-22T18:29:06.623Z,21.90
2017-06-22T18:31:35.006Z,22.00
2017-06-22T18:34:03.469Z,21.90
2017-06-22T18:36:31.828Z,21.90
2017-06-22T18:39:00.177Z,21.80
2017-06-22T18:41:30.202Z,21.80
2017-06-22T18:43:58.567Z,21.80
2017-06-22T18:46:26.897Z,21.90
2017-06-22T18:48:56.030Z,22.00
2017-06-22T18:51:24.379Z,22.10
2017-06-22T18:53:52.698Z,22.10
2017-06-22T18:56:21.821Z,22.10
2017-06-22T18:58:50.131Z,22.20
2017-06-22T19:01:19.270Z,22.00
2017-06-22T19:03:47.623Z,21.90
2017-06-22T19:06:15.957Z,21.80
2017-06-22T19:08:45.156Z,21.60
2017-06-22T19:11:13.505Z,21.60
2017-06-22T19:13:41.833Z,21.40
2017-06-22T19:16:10.168Z,21.40
2017-06-22T19:18:38.497Z,21.40
2017-06-22T19:21:07.225Z,21.30
2017-06-22T19:23:35.679Z,21.30
2017-06-22T19:26:04.162Z,21.30
2017-06-22T19:28:32.510Z,21.30
2017-06-22T19:31:00.833Z,21.20
2017-06-22T19:33:29.598Z,21.40
2017-06-22T19:35:58.690Z,21.40
2017-06-22T19:38:27.045Z,21.30
2017-06-22T19:40:56.164Z,21.20
2017-06-22T19:43:24.473Z,21.10
2017-06-22T19:45:52.830Z,21.10
2017-06-22T19:48:21.169Z,21.10
2017-06-22T19:50:50.285Z,21.10
2017-06-22T19:53:18.623Z,21.00
2017-06-22T19:55:47.055Z,21.20
2017-06-22T19:58:15.383Z,21.20
2017-06-22T20:00:44.503Z,21.00
2017-06-22T20:03:12.893Z,21.00
2017-06-22T20:05:41.259Z,20.90
2017-06-22T20:08:09.638Z,20.70
2017-06-22T20:10:37.977Z,20.60
2017-06-22T20:13:06.329Z,20.40
2017-06-22T20:15:34.650Z,20.40
2017-06-22T20:18:03.774Z,20.40
2017-06-22T20:20:32.097Z,20.50
2017-06-22T20:23:00.883Z,20.50
2017-06-22T20:25:29.227Z,20.50
2017-06-22T20:27:57.609Z,20.30
2017-06-22T20:30:25.908Z,20.20
2017-06-22T20:32:54.239Z,20.30
2017-06-22T20:35:22.582Z,20.30
2017-06-22T20:37:50.894Z,20.30
2017-06-22T20:40:19.337Z,20.20
2017-06-22T20:42:47.675Z,20.20
2017-06-22T20:45:16.056Z,20.20
2017-06-22T20:47:44.402Z,20.10
2017-06-22T20:50:12.721Z,20.10
2017-06-22T20:52:41.059Z,20.00
2017-06-22T20:55:09.381Z,20.10
2017-06-22T20:57:37.707Z,20.00
2017-06-22T21:00:06.039Z,20.00
2017-06-22T21:02:34.978Z,20.00
2017-06-22T21:05:03.283Z,19.90
2017-06-22T21:07:31.650Z,19.90
2017-06-22T21:10:00.350Z,20.00
2017-06-22T21:12:28.687Z,20.00
2017-06-22T21:14:57.231Z,20.00
2017-06-22T21:17:25.549Z,19.90
2017-06-22T21:19:54.377Z,19.90
2017-06-22T21:22:22.704Z,19.90
2017-06-22T21:24:51.065Z,20.00
2017-06-22T21:27:20.148Z,19.90
2017-06-22T21:29:48.505Z,19.80
2017-06-22T21:32:16.901Z,19.70
2017-06-22T21:34:45.226Z,19.70
2017-06-22T21:37:13.540Z,19.70
2017-06-22T21:39:41.873Z,19.70
2017-06-22T21:42:10.206Z,19.60
2017-06-22T21:44:38.536Z,19.70
2017-06-22T21:47:06.871Z,19.70
2017-06-22T21:49:35.223Z,19.80
2017-06-22T21:52:03.539Z,19.70
2017-06-22T21:54:31.867Z,19.70
2017-06-22T21:57:00.245Z,19.90
2017-06-22T21:59:28.611Z,19.80
2017-06-22T22:01:57.325Z,19.70
2017-06-22T22:04:25.656Z,19.90
2017-06-22T22:06:54.029Z,19.80
2017-06-22T22:09:22.419Z,19.80
2017-06-22T22:11:51.527Z,19.70
2017-06-22T22:14:20.621Z,19.70
2017-06-22T22:16:49.354Z,19.80
2017-06-22T22:19:18.102Z,19.70
2017-06-22T22:21:46.507Z,19.60
2017-06-22T22:24:14.851Z,19.60
2017-06-22T22:26:43.156Z,19.50
2017-06-22T22:29:11.901Z,19.50
2017-06-22T22:31:40.436Z,19.40
2017-06-22T22:34:08.742Z,19.50
2017-06-22T22:36:37.086Z,19.40
2017-06-22T22:39:05.382Z,19.30
2017-06-22T22:41:34.480Z,19.10
2017-06-22T22:44:03.599Z,18.80
2017-06-22T22:46:31.951Z,18.40
2017-06-22T22:49:00.683Z,18.60
2017-06-22T22:51:28.999Z,18.60
2017-06-22T22:53:57.365Z,18.40
2017-06-22T22:56:25.716Z,18.40
2017-06-22T22:58:54.046Z,18.50
2017-06-22T23:01:23.128Z,18.30
2017-06-22T23:03:51.481Z,18.30
2017-06-22T23:06:21.007Z,18.40
2017-06-22T23:08:49.377Z,18.40
2017-06-22T23:11:17.674Z,18.30
2017-06-22T23:13:46.780Z,18.20
2017-06-22T23:16:15.880Z,18.30
2017-06-22T23:18:44.225Z,18.20
2017-06-22T23:21:12.548Z,18.20
2017-06-22T23:23:40.889Z,18.00
2017-06-22T23:26:09.201Z,18.00
2017-06-22T23:28:40.737Z,17.80
2017-06-22T23:31:09.840Z,17.70
2017-06-22T23:33:38.576Z,17.50
2017-06-22T23:36:06.892Z,17.50
2017-06-22T23:38:35.995Z,17.40
2017-06-22T23:41:04.300Z,17.40
2017-06-22T23:43:32.641Z,17.50
2017-06-22T23:46:01.720Z,17.60
2017-06-22T23:48:30.082Z,17.70
2017-06-22T23:50:58.410Z,17.60
2017-06-22T23:53:26.937Z,17.40
2017-06-22T23:55:55.265Z,17.50
2017-06-22T23:58:23.611Z,17.40
